createdAt,value
2019-04-06T00:02:49.140Z,98933.62
2019-04-06T00:06:55.861Z,98937.29
2019-04-06T00:11:02.707Z,98938.09
2019-04-06T00:15:09.580Z,98930.62
2019-04-06T00:19:16.246Z,98930.84
2019-04-06T00:23:22.974Z,98925.56
2019-04-06T00:27:29.690Z,98924.33
2019-04-06T00:31:43.066Z,98937.03
2019-04-06T00:35:49.761Z,98930.61
2019-04-06T00:39:56.448Z,98928.20
2019-04-06T00:44:03.237Z,98924.52
2019-04-06T00:48:11.033Z,98923.56
2019-04-06T00:52:18.379Z,98928.94
2019-04-06T00:56:28.433Z,98925.49
2019-04-06T01:00:35.283Z,98929.09
2019-04-06T01:04:42.103Z,98929.16
2019-04-06T01:09:00.367Z,98920.77
2019-04-06T01:13:08.776Z,98914.12
2019-04-06T01:17:15.957Z,98918.56
2019-04-06T01:21:22.895Z,98915.05
2019-04-06T01:25:29.815Z,98909.19
2019-04-06T01:29:36.598Z,98905.88
2019-04-06T01:33:44.571Z,98911.48
2019-04-06T01:37:51.965Z,98909.19
2019-04-06T01:41:58.721Z,98905.16
2019-04-06T01:46:07.008Z,98907.64
2019-04-06T01:50:14.085Z,98907.03
2019-04-06T01:54:21.139Z,98906.19
2019-04-06T01:58:28.023Z,98904.05
2019-04-06T02:02:39.921Z,98899.22
2019-04-06T02:06:46.790Z,98891.30
2019-04-06T02:10:53.553Z,98888.50
2019-04-06T02:15:00.395Z,98887.67
2019-04-06T02:19:07.221Z,98892.66
2019-04-06T02:23:13.905Z,98898.21
2019-04-06T02:27:20.607Z,98896.60
2019-04-06T02:31:53.924Z,98908.91
2019-04-06T02:36:19.781Z,98908.91
2019-04-06T02:40:49.353Z,98906.33
2019-04-06T02:44:56.035Z,98908.33
2019-04-06T02:49:02.898Z,98906.72
2019-04-06T02:53:09.646Z,98906.84
2019-04-06T02:57:16.414Z,98910.10
2019-04-06T03:01:23.193Z,98910.77
2019-04-06T03:05:29.957Z,98911.52
2019-04-06T03:09:36.697Z,98910.87
2019-04-06T03:13:43.497Z,98906.69
2019-04-06T03:17:50.605Z,98902.95
2019-04-06T03:21:57.411Z,98901.41
2019-04-06T03:26:04.137Z,98901.23
2019-04-06T03:30:12.476Z,98897.16
2019-04-06T03:34:21.525Z,98897.73
2019-04-06T03:38:29.336Z,98890.00
2019-04-06T03:42:36.451Z,98893.40
2019-04-06T03:46:43.354Z,98889.92
2019-04-06T03:50:50.472Z,98894.74
2019-04-06T03:54:57.363Z,98890.08
2019-04-06T03:59:04.554Z,98891.30
2019-04-06T04:03:11.455Z,98888.59
2019-04-06T04:07:18.256Z,98895.94
2019-04-06T04:11:24.973Z,98892.20
2019-04-06T04:15:31.769Z,98891.52
2019-04-06T04:19:38.446Z,98893.17
2019-04-06T04:23:45.272Z,98891.38
2019-04-06T04:27:51.963Z,98901.13
2019-04-06T04:31:58.827Z,98905.94
2019-04-06T04:36:05.825Z,98910.07
2019-04-06T04:40:12.636Z,98917.03
2019-04-06T04:44:19.638Z,98916.63
2019-04-06T04:48:26.435Z,98923.33
2019-04-06T04:52:33.084Z,98929.62
2019-04-06T04:56:39.854Z,98931.97
2019-04-06T05:00:46.648Z,98933.91
2019-04-06T05:04:53.332Z,98940.58
2019-04-06T05:09:00.899Z,98934.71
2019-04-06T05:13:08.471Z,98942.81
2019-04-06T05:17:16.033Z,98943.75
2019-04-06T05:21:23.102Z,98944.08
2019-04-06T05:25:30.429Z,98947.70
2019-04-06T05:29:37.771Z,98956.20
2019-04-06T05:33:44.936Z,98959.47
2019-04-06T05:37:51.975Z,98961.27
2019-04-06T05:41:59.036Z,98965.55
2019-04-06T05:46:05.897Z,98964.30
2019-04-06T05:50:12.932Z,98972.00
2019-04-06T05:54:20.183Z,98974.83
2019-04-06T05:58:27.120Z,98973.88
2019-04-06T06:02:35.717Z,98982.27
2019-04-06T06:06:44.731Z,98984.72
2019-04-06T06:10:51.972Z,98990.05
2019-04-06T06:15:00.002Z,98994.07
2019-04-06T06:19:07.482Z,99003.27
2019-04-06T06:23:14.922Z,98998.47
2019-04-06T06:27:24.209Z,99010.92
2019-04-06T06:31:31.087Z,99005.88
2019-04-06T06:35:39.235Z,99004.55
2019-04-06T06:39:46.603Z,99008.83
2019-04-06T06:43:53.789Z,99006.16
2019-04-06T06:48:00.639Z,99007.17
2019-04-06T06:52:07.477Z,99004.11
2019-04-06T06:56:14.243Z,99003.59
2019-04-06T07:00:21.112Z,99005.84
2019-04-06T07:04:27.877Z,99006.62
2019-04-06T07:08:35.527Z,99007.48
2019-04-06T07:12:42.396Z,99012.77
2019-04-06T07:16:49.222Z,99012.79
2019-04-06T07:20:57.079Z,99008.88
2019-04-06T07:25:03.839Z,99005.23
2019-04-06T07:29:10.599Z,99005.80
2019-04-06T07:33:17.573Z,98998.03
2019-04-06T07:37:24.419Z,98999.80
2019-04-06T07:41:31.167Z,98997.88
2019-04-06T07:45:38.080Z,98993.45
2019-04-06T07:49:46.356Z,98992.77
2019-04-06T07:53:53.576Z,98986.58
2019-04-06T07:58:01.278Z,98991.27
2019-04-06T08:02:08.158Z,98988.95
2019-04-06T08:06:15.067Z,98989.71
2019-04-06T08:10:21.884Z,98990.27
2019-04-06T08:14:28.874Z,98990.39
2019-04-06T08:18:35.942Z,98989.41
2019-04-06T08:22:42.830Z,99001.08
2019-04-06T08:26:49.759Z,98991.75
2019-04-06T08:30:56.637Z,98985.05
2019-04-06T08:35:03.514Z,98986.62
2019-04-06T08:39:11.493Z,98982.89
2019-04-06T08:43:18.281Z,98979.38
2019-04-06T08:47:25.001Z,98982.78
2019-04-06T08:51:31.933Z,98976.02
2019-04-06T08:55:38.883Z,98982.23
2019-04-06T08:59:45.605Z,98983.17
2019-04-06T09:03:52.532Z,98981.36
2019-04-06T09:07:59.269Z,98981.48
2019-04-06T09:12:06.219Z,98980.08
2019-04-06T09:16:12.859Z,98980.25
2019-04-06T09:20:19.582Z,98974.20
2019-04-06T09:24:26.308Z,98969.73
2019-04-06T09:28:33.259Z,98972.39
2019-04-06T09:32:40.154Z,98972.36
2019-04-06T09:36:46.938Z,98972.52
2019-04-06T09:40:53.702Z,98969.73
2019-04-06T09:45:17.199Z,98966.95
2019-04-06T09:49:31.539Z,98964.81
2019-04-06T09:54:05.862Z,98970.55
2019-04-06T09:58:21.832Z,98965.53
2019-04-06T10:02:38.957Z,98967.25
2019-04-06T10:07:00.901Z,98958.91
2019-04-06T10:11:27.098Z,98961.21
2019-04-06T10:15:59.257Z,98955.72
2019-04-06T10:20:33.355Z,98959.52
2019-04-06T10:24:59.281Z,98952.29
2019-04-06T10:29:18.481Z,98950.98
2019-04-06T10:33:41.237Z,98943.70
2019-04-06T10:38:09.641Z,98949.44
2019-04-06T10:42:24.923Z,98954.84
2019-04-06T10:46:47.828Z,98954.14
2019-04-06T10:51:16.037Z,98945.48
2019-04-06T10:55:54.155Z,98934.33
2019-04-06T11:00:38.931Z,98929.83
2019-04-06T11:04:57.086Z,98925.05
2019-04-06T11:09:26.605Z,98926.51
2019-04-06T11:14:01.051Z,98919.05
2019-04-06T11:18:30.793Z,98920.63
2019-04-06T11:22:56.711Z,98914.66
2019-04-06T11:27:25.386Z,98912.96
2019-04-06T11:31:56.322Z,98905.38
2019-04-06T11:36:34.166Z,98896.14
2019-04-06T11:40:53.080Z,98888.95
2019-04-06T11:45:34.257Z,98880.66
2019-04-06T11:50:04.746Z,98872.61
2019-04-06T11:54:41.086Z,98882.96
2019-04-06T11:59:05.636Z,98884.27
2019-04-06T12:03:23.493Z,98887.81
2019-04-06T12:07:40.275Z,98879.34
2019-04-06T12:12:05.927Z,98878.81
2019-04-06T12:16:30.639Z,98868.56
2019-04-06T12:20:43.813Z,98869.17
2019-04-06T12:25:29.069Z,98864.11
2019-04-06T12:29:59.750Z,98865.43
2019-04-06T12:34:28.505Z,98865.17
2019-04-06T12:38:55.046Z,98860.36
2019-04-06T12:43:21.097Z,98851.98
2019-04-06T12:47:47.290Z,98855.81
2019-04-06T12:52:03.955Z,98851.81
2019-04-06T12:56:20.299Z,98848.54
2019-04-06T13:00:52.948Z,98838.39
2019-04-06T13:05:15.633Z,98842.87
2019-04-06T13:09:40.337Z,98850.36
2019-04-06T13:14:21.162Z,98833.49
2019-04-06T13:18:34.389Z,98833.84
2019-04-06T13:23:06.296Z,98838.02
2019-04-06T13:27:19.879Z,98828.93
2019-04-06T13:32:00.664Z,98823.81
2019-04-06T13:36:29.414Z,98821.69
2019-04-06T13:40:58.848Z,98820.69
2019-04-06T13:45:40.673Z,98818.24
2019-04-06T13:50:05.387Z,98813.53
2019-04-06T13:54:34.409Z,98819.28
2019-04-06T13:58:50.214Z,98817.41
2019-04-06T14:03:18.742Z,98815.48
2019-04-06T14:07:35.738Z,98815.62
2019-04-06T14:12:16.649Z,98813.49
2019-04-06T14:16:48.844Z,98808.36
2019-04-06T14:21:24.238Z,98806.36
2019-04-06T14:25:57.483Z,98797.81
2019-04-06T14:30:23.027Z,98796.73
2019-04-06T14:34:51.543Z,98795.75
2019-04-06T14:39:16.480Z,98797.66
2019-04-06T14:48:40.099Z,98790.39
2019-04-06T14:53:09.205Z,98796.80
2019-04-06T14:57:30.890Z,98791.81
2019-04-06T15:02:00.148Z,98789.50
2019-04-06T15:06:26.114Z,98784.57
2019-04-06T15:10:48.275Z,98780.69
2019-04-06T15:15:13.110Z,98784.50
2019-04-06T15:19:51.689Z,98776.16
2019-04-06T15:24:10.750Z,98766.14
2019-04-06T15:28:32.480Z,98768.16
2019-04-06T15:32:56.891Z,98758.98
2019-04-06T15:37:20.833Z,98754.20
2019-04-06T15:41:55.781Z,98748.12
2019-04-06T15:46:10.073Z,98742.52
2019-04-06T15:50:34.736Z,98738.28
2019-04-06T15:54:47.148Z,98725.92
2019-04-06T15:59:15.856Z,98734.18
2019-04-06T16:03:33.804Z,98729.58
2019-04-06T16:07:58.400Z,98731.24
2019-04-06T16:12:24.214Z,98729.61
2019-04-06T16:16:50.563Z,98728.02
2019-04-06T16:21:16.727Z,98721.11
2019-04-06T16:25:48.515Z,98716.00
2019-04-06T16:30:19.649Z,98716.34
2019-04-06T16:34:39.017Z,98713.48
2019-04-06T16:39:04.668Z,98714.38
2019-04-06T16:43:39.933Z,98717.98
2019-04-06T16:48:08.569Z,98719.06
2019-04-06T16:52:37.141Z,98714.54
2019-04-06T16:56:54.880Z,98715.67
2019-04-06T17:01:17.589Z,98714.93
2019-04-06T17:05:42.743Z,98711.17
2019-04-06T17:10:11.678Z,98708.88
2019-04-06T17:14:33.365Z,98706.76
2019-04-06T17:19:02.330Z,98707.61
2019-04-06T17:23:20.953Z,98707.89
2019-04-06T17:27:56.070Z,98708.67
2019-04-06T17:32:35.577Z,98702.02
2019-04-06T17:36:55.267Z,98706.08
2019-04-06T17:41:20.057Z,98705.30
2019-04-06T17:46:01.171Z,98705.56
2019-04-06T17:50:23.053Z,98704.02
2019-04-06T17:54:57.452Z,98698.94
2019-04-06T17:59:31.287Z,98705.36
2019-04-06T18:03:53.015Z,98703.75
2019-04-06T18:08:27.724Z,98704.01
2019-04-06T18:12:55.888Z,98697.88
2019-04-06T18:17:05.578Z,98700.27
2019-04-06T18:21:12.347Z,98700.48
2019-04-06T18:25:25.149Z,98706.10
2019-04-06T18:29:32.163Z,98700.19
2019-04-06T18:33:39.000Z,98696.19
2019-04-06T18:37:53.912Z,98696.16
2019-04-06T18:42:00.874Z,98694.84
2019-04-06T18:46:08.076Z,98690.02
2019-04-06T18:50:15.523Z,98693.47
2019-04-06T18:54:22.238Z,98685.73
2019-04-06T18:58:29.113Z,98691.61
2019-04-06T19:02:36.166Z,98694.81
2019-04-06T19:06:43.195Z,98693.48
2019-04-06T19:10:50.114Z,98695.62
2019-04-06T19:14:56.823Z,98699.88
2019-04-06T19:19:03.700Z,98697.49
2019-04-06T19:23:10.495Z,98695.36
2019-04-06T19:27:17.362Z,98702.29
2019-04-06T19:31:24.134Z,98707.09
2019-04-06T19:35:31.405Z,98700.70
2019-04-06T19:39:38.668Z,98703.63
2019-04-06T19:43:45.914Z,98708.95
2019-04-06T19:47:52.878Z,98716.16
2019-04-06T19:52:00.163Z,98715.90
2019-04-06T19:56:07.730Z,98719.08
2019-04-06T20:00:16.767Z,98719.88
2019-04-06T20:04:25.198Z,98723.06
2019-04-06T20:08:32.882Z,98722.80
2019-04-06T20:12:39.988Z,98724.69
2019-04-06T20:16:47.380Z,98718.80
2019-04-06T20:20:54.198Z,98724.94
2019-04-06T20:25:01.602Z,98722.52
2019-04-06T20:29:10.269Z,98723.83
2019-04-06T20:33:19.616Z,98734.20
2019-04-06T20:37:26.361Z,98733.67
2019-04-06T20:41:33.459Z,98744.88
2019-04-06T20:45:41.181Z,98737.67
2019-04-06T20:49:48.181Z,98737.41
2019-04-06T20:53:55.172Z,98746.18
2019-04-06T20:58:02.061Z,98743.75
2019-04-06T21:02:09.369Z,98750.92
2019-04-06T21:06:16.896Z,98747.76
2019-04-06T21:10:23.778Z,98744.61
2019-04-06T21:14:30.542Z,98751.06
2019-04-06T21:18:37.745Z,98752.29
2019-04-06T21:22:44.438Z,98750.39
2019-04-06T21:26:51.114Z,98751.10
2019-04-06T21:30:57.823Z,98750.03
2019-04-06T21:35:05.539Z,98752.07
2019-04-06T21:39:12.408Z,98746.41
2019-04-06T21:43:19.976Z,98748.22
2019-04-06T21:47:27.302Z,98750.50
2019-04-06T21:51:36.405Z,98750.64
2019-04-06T21:55:43.524Z,98747.34
2019-04-06T21:59:50.280Z,98742.78
2019-04-06T22:03:57.657Z,98736.61
2019-04-06T22:08:04.930Z,98742.68
2019-04-06T22:12:11.650Z,98740.45
2019-04-06T22:16:18.783Z,98747.62
2019-04-06T22:20:25.633Z,98747.52
2019-04-06T22:24:33.724Z,98743.73
2019-04-06T22:28:41.396Z,98743.40
2019-04-06T22:32:48.257Z,98741.97
2019-04-06T22:36:56.063Z,98743.99
2019-04-06T22:41:02.837Z,98751.11
2019-04-06T22:45:12.408Z,98748.11
2019-04-06T22:49:19.156Z,98744.87
2019-04-06T22:53:25.860Z,98743.95
2019-04-06T22:57:32.910Z,98743.61
2019-04-06T23:01:40.745Z,98742.67
2019-04-06T23:05:50.680Z,98741.47
2019-04-06T23:09:57.711Z,98735.33
2019-04-06T23:14:04.867Z,98734.82
2019-04-06T23:18:12.102Z,98736.31
2019-04-06T23:22:19.493Z,98735.00
2019-04-06T23:26:26.301Z,98739.77
2019-04-06T23:30:33.060Z,98727.47
2019-04-06T23:34:40.800Z,98735.13
2019-04-06T23:38:47.659Z,98732.45
2019-04-06T23:42:54.934Z,98736.39
2019-04-06T23:47:02.040Z,98728.42
2019-04-06T23:51:08.816Z,98728.13
2019-04-06T23:55:16.244Z,98730.78
2019-04-06T23:59:23.318Z,98733.45
